FGBTFCBB

Guest
Details From FGBT - BATA
To FCBB - MAYA MAYA
Flight Number -
Tags generated
Created
Modified
Stats Distance 522 nm / 966 km
Max Altitude 35,000 ft / 10,668 m
Waypoints 7
Social Downloads 0
Likes 0
Share VATSIM

Download

Looking for another format? Having issues loading an existing format? Contact us
Advertisement - Login to hide

Notes

Basic altitude profile: - Ascent Rate: 2500ft/min - Ascent Speed: 250kts - Cruise Altitude: 35000ft - Cruise Speed: 420kts - Descent Rate: 1500ft/min - Descent Speed: 250kts Options: - Use NATs: yes - Use PACOTS: yes - Use low airways: yes - Use high airways: yes

Route

FGBT ARASI UG861 KOPOV UG856 VOSAL G856F EPULO FCBB

ID Type Via Altitude Latitude Longitude Leg Dist Tot Dist Heading (true) Name
O FGBT APT - 0 ft / 0 m 1.90547˚ 9.80568˚ - 0 nm - BATA
ARASI FIX - 9,300 ft / 2,835 m 1.80056˚ 10.27750˚ 29 nm 29 nm 103° / 103° -
KOPOV FIX UG861 (AWY-HI) 35,000 ft / 10,668 m -0.72333˚ 10.89028˚ 155 nm 184 nm 166° / 166° -
VOSAL FIX UG856 (AWY-HI) 35,000 ft / 10,668 m -2.46472˚ 13.04722˚ 166 nm 351 nm 129° / 129° -
IPAMU FIX G856F (AWY-LO) 23,500 ft / 7,163 m -2.69861˚ 13.33750˚ 22 nm 373 nm 129° / 129° -
EPULO FIX G856F (AWY-LO) 15,600 ft / 4,755 m -3.43139˚ 14.24861˚ 70 nm 443 nm 129° / 129° -
O FCBB APT - 0 ft / 0 m -4.25170˚ 15.25303˚ 77 nm 521 nm 129° / 129° MAYA MAYA

Altitude Profile

Advertisement - Login to hide

Weather


0- 5 10 15 20 25 30 35+ Temperature / ° C

Clouds and Precipitation
Forecast for 2017-12-16 06:00 UTC. Updated 15 minutes ago

Ground ~20,000 ft ~40,000 ft Winds

FGBT

Details ICAO FGBT (BSG)
Name BATA
Region Equatorial Guinea
Timezone Africa/Malabo (UTC+1.0)
Stats Elevation 13 ft / 4 m (AMSL)
Location 1.905468° 9.805680°
Runways 1
Magnetic Variation 1.502° W

METAR

FGBT 160000Z 00000KT 9999 TS SCT010 FEW020CB 26/26 Q1010

Decode

TAF

Not found

Departure Runways

ID Width Length Bearing (true) Bearing (mag) Surface Threshold Offset Overrun Length
04 148 ft / 45 m 6,577 ft / 2,005 m 40.97° 42.47° Asphalt 0 ft / 0 m 0 ft / 0 m
22 148 ft / 45 m 6,577 ft / 2,005 m 220.97° 222.47° Asphalt 0 ft / 0 m 0 ft / 0 m

FCBB

Details ICAO FCBB (BZV)
Name MAYA MAYA
Region Republic of the Congo
Timezone Africa/Brazzaville (UTC+1.0)
Stats Elevation 1,048 ft / 319 m (AMSL)
Location -4.251698° 15.253029°
Runways 1
Magnetic Variation 1.352° W

METAR

FCBB 160100Z 23006KT 8000 TS SCT016 FEW030CB 24/23 Q1012 NOSIG

Decode

TAF

TAF FCBB 152300Z 1600/1706 24004KT 9000 SCT016 FEW030CB TEMPO 1601/1604 TS BECMG 1605/1606 SCT016 BECMG 1612/1614 FEW020 FEW030CB BECMG 1620/1621 SCT018

Decode

Destination Runways

ID Width Length Bearing (true) Bearing (mag) Surface Threshold Offset Overrun Length
05 148 ft / 45 m 10,849 ft / 3,307 m 49.91° 51.26° Asphalt 0 ft / 0 m 275 ft / 84 m
23 148 ft / 45 m 10,849 ft / 3,307 m 229.91° 231.26° Asphalt 0 ft / 0 m 275 ft / 84 m

Popular Alternatives